sensor_id;sensor_type;location;lat;lon;timestamp;temperature;humidity
64689;DHT22;62504;46.070;14.492;2023-06-10T00:00:37;18.00;99.90
64689;DHT22;62504;46.070;14.492;2023-06-10T00:03:03;18.20;99.90
64689;DHT22;62504;46.070;14.492;2023-06-10T00:05:29;18.30;99.90
64689;DHT22;62504;46.070;14.492;2023-06-10T00:07:56;18.30;99.90
64689;DHT22;62504;46.070;14.492;2023-06-10T00:10:22;18.20;99.90
64689;DHT22;62504;46.070;14.492;2023-06-10T00:12:47;18.20;99.90
64689;DHT22;62504;46.070;14.492;2023-06-10T00:15:13;18.20;99.90
64689;DHT22;62504;46.070;14.492;2023-06-10T00:17:39;18.20;99.90
64689;DHT22;62504;46.070;14.492;2023-06-10T00:20:08;18.10;99.90
64689;DHT22;62504;46.070;14.492;2023-06-10T00:22:37;17.90;99.90
64689;DHT22;62504;46.070;14.492;2023-06-10T00:25:05;18.00;99.90
64689;DHT22;62504;46.070;14.492;2023-06-10T00:27:31;18.10;99.90
64689;DHT22;62504;46.070;14.492;2023-06-10T00:30:02;18.10;99.90
64689;DHT22;62504;46.070;14.492;2023-06-10T00:32:30;18.00;99.90
64689;DHT22;62504;46.070;14.492;2023-06-10T00:34:56;18.00;99.90
64689;DHT22;62504;46.070;14.492;2023-06-10T00:37:21;18.00;99.90
64689;DHT22;62504;46.070;14.492;2023-06-10T00:39:47;17.90;99.90
64689;DHT22;62504;46.070;14.492;2023-06-10T00:42:13;17.70;99.90
64689;DHT22;62504;46.070;14.492;2023-06-10T00:44:39;17.60;99.90
64689;DHT22;62504;46.070;14.492;2023-06-10T00:47:05;17.50;99.90
64689;DHT22;62504;46.070;14.492;2023-06-10T00:49:31;17.60;99.90
64689;DHT22;62504;46.070;14.492;2023-06-10T00:51:58;17.60;99.90
64689;DHT22;62504;46.070;14.492;2023-06-10T00:54:23;17.60;99.90
64689;DHT22;62504;46.070;14.492;2023-06-10T00:56:49;17.70;99.90
64689;DHT22;62504;46.070;14.492;2023-06-10T00:59:15;17.70;99.90
64689;DHT22;62504;46.070;14.492;2023-06-10T01:01:42;17.70;99.90
64689;DHT22;62504;46.070;14.492;2023-06-10T01:04:08;17.60;99.90
64689;DHT22;62504;46.070;14.492;2023-06-10T01:06:47;17.70;99.90
64689;DHT22;62504;46.070;14.492;2023-06-10T01:09:22;17.30;99.90
64689;DHT22;62504;46.070;14.492;2023-06-10T01:12:19;17.30;99.90
64689;DHT22;62504;46.070;14.492;2023-06-10T01:14:45;17.40;99.90
64689;DHT22;62504;46.070;14.492;2023-06-10T01:17:12;17.50;99.90
64689;DHT22;62504;46.070;14.492;2023-06-10T01:19:38;17.50;99.90
64689;DHT22;62504;46.070;14.492;2023-06-10T01:22:04;17.30;99.90
64689;DHT22;62504;46.070;14.492;2023-06-10T01:24:31;17.10;99.90
64689;DHT22;62504;46.070;14.492;2023-06-10T01:27:01;17.10;99.90
64689;DHT22;62504;46.070;14.492;2023-06-10T01:29:37;17.30;99.90
64689;DHT22;62504;46.070;14.492;2023-06-10T01:32:08;17.30;99.90
64689;DHT22;62504;46.070;14.492;2023-06-10T01:34:37;17.30;99.90
64689;DHT22;62504;46.070;14.492;2023-06-10T01:37:04;17.40;99.90
64689;DHT22;62504;46.070;14.492;2023-06-10T01:39:32;17.20;99.90
64689;DHT22;62504;46.070;14.492;2023-06-10T01:41:58;17.20;99.90
64689;DHT22;62504;46.070;14.492;2023-06-10T01:44:24;17.10;99.90
64689;DHT22;62504;46.070;14.492;2023-06-10T01:46:50;17.00;99.90
64689;DHT22;62504;46.070;14.492;2023-06-10T01:49:15;17.10;99.90
64689;DHT22;62504;46.070;14.492;2023-06-10T01:51:41;17.10;99.90
64689;DHT22;62504;46.070;14.492;2023-06-10T01:54:07;17.00;99.90
64689;DHT22;62504;46.070;14.492;2023-06-10T01:56:33;17.00;99.90
64689;DHT22;62504;46.070;14.492;2023-06-10T01:58:58;17.00;99.90
64689;DHT22;62504;46.070;14.492;2023-06-10T02:01:28;17.00;99.90
64689;DHT22;62504;46.070;14.492;2023-06-10T02:03:53;17.10;99.90
64689;DHT22;62504;46.070;14.492;2023-06-10T02:06:19;17.10;99.90
64689;DHT22;62504;46.070;14.492;2023-06-10T02:08:45;17.10;99.90
64689;DHT22;62504;46.070;14.492;2023-06-10T02:11:11;16.90;99.90
64689;DHT22;62504;46.070;14.492;2023-06-10T02:13:38;16.90;99.90
64689;DHT22;62504;46.070;14.492;2023-06-10T02:16:04;16.90;99.90
64689;DHT22;62504;46.070;14.492;2023-06-10T02:18:31;16.90;99.90
64689;DHT22;62504;46.070;14.492;2023-06-10T02:20:56;16.90;99.90
64689;DHT22;62504;46.070;14.492;2023-06-10T02:23:22;16.80;99.90
64689;DHT22;62504;46.070;14.492;2023-06-10T02:25:47;17.00;99.90
64689;DHT22;62504;46.070;14.492;2023-06-10T02:28:13;16.80;99.90
64689;DHT22;62504;46.070;14.492;2023-06-10T02:30:41;16.70;99.90
64689;DHT22;62504;46.070;14.492;2023-06-10T02:33:07;16.50;99.90
64689;DHT22;62504;46.070;14.492;2023-06-10T02:35:37;16.60;99.90
64689;DHT22;62504;46.070;14.492;2023-06-10T02:38:03;16.60;99.90
64689;DHT22;62504;46.070;14.492;2023-06-10T02:40:29;16.40;99.90
64689;DHT22;62504;46.070;14.492;2023-06-10T02:42:55;16.50;99.90
64689;DHT22;62504;46.070;14.492;2023-06-10T02:45:20;16.40;99.90
64689;DHT22;62504;46.070;14.492;2023-06-10T02:47:46;16.30;99.90
64689;DHT22;62504;46.070;14.492;2023-06-10T02:50:11;16.20;99.90
64689;DHT22;62504;46.070;14.492;2023-06-10T02:52:37;16.20;99.90
64689;DHT22;62504;46.070;14.492;2023-06-10T02:55:03;16.20;99.90
64689;DHT22;62504;46.070;14.492;2023-06-10T02:57:29;16.40;99.90
64689;DHT22;62504;46.070;14.492;2023-06-10T02:59:54;16.40;99.90
64689;DHT22;62504;46.070;14.492;2023-06-10T03:02:20;16.30;99.90
64689;DHT22;62504;46.070;14.492;2023-06-10T03:04:46;16.30;99.90
64689;DHT22;62504;46.070;14.492;2023-06-10T03:07:11;16.30;99.90
64689;DHT22;62504;46.070;14.492;2023-06-10T03:09:37;16.30;99.90
64689;DHT22;62504;46.070;14.492;2023-06-10T03:12:03;16.40;99.90
64689;DHT22;62504;46.070;14.492;2023-06-10T03:14:29;16.50;99.90
64689;DHT22;62504;46.070;14.492;2023-06-10T03:16:55;16.40;99.90
64689;DHT22;62504;46.070;14.492;2023-06-10T03:19:21;16.40;99.90
64689;DHT22;62504;46.070;14.492;2023-06-10T03:21:57;16.60;99.90
64689;DHT22;62504;46.070;14.492;2023-06-10T03:24:23;16.50;99.90
64689;DHT22;62504;46.070;14.492;2023-06-10T03:26:48;16.50;99.90
64689;DHT22;62504;46.070;14.492;2023-06-10T03:29:14;16.60;99.90
64689;DHT22;62504;46.070;14.492;2023-06-10T03:31:39;16.60;99.90
64689;DHT22;62504;46.070;14.492;2023-06-10T03:34:05;16.40;99.90
64689;DHT22;62504;46.070;14.492;2023-06-10T03:36:31;16.30;99.90
64689;DHT22;62504;46.070;14.492;2023-06-10T03:38:56;16.40;99.90
64689;DHT22;62504;46.070;14.492;2023-06-10T03:41:22;16.40;99.90
64689;DHT22;62504;46.070;14.492;2023-06-10T03:43:48;16.50;99.90
64689;DHT22;62504;46.070;14.492;2023-06-10T03:46:14;16.40;99.90
64689;DHT22;62504;46.070;14.492;2023-06-10T03:48:40;16.20;99.90
64689;DHT22;62504;46.070;14.492;2023-06-10T03:51:05;16.30;99.90
64689;DHT22;62504;46.070;14.492;2023-06-10T03:53:31;16.30;99.90
64689;DHT22;62504;46.070;14.492;2023-06-10T03:55:57;16.30;99.90
64689;DHT22;62504;46.070;14.492;2023-06-10T03:58:23;16.20;99.90
64689;DHT22;62504;46.070;14.492;2023-06-10T04:00:48;16.30;99.90
64689;DHT22;62504;46.070;14.492;2023-06-10T04:03:15;16.30;99.90
64689;DHT22;62504;46.070;14.492;2023-06-10T04:05:41;16.10;99.90
64689;DHT22;62504;46.070;14.492;2023-06-10T04:08:07;16.30;99.90
64689;DHT22;62504;46.070;14.492;2023-06-10T04:10:33;16.30;99.90
64689;DHT22;62504;46.070;14.492;2023-06-10T04:12:59;16.20;99.90
64689;DHT22;62504;46.070;14.492;2023-06-10T04:15:25;16.30;99.90
64689;DHT22;62504;46.070;14.492;2023-06-10T04:17:51;16.10;99.90
64689;DHT22;62504;46.070;14.492;2023-06-10T04:20:16;16.20;99.90
64689;DHT22;62504;46.070;14.492;2023-06-10T04:22:42;16.10;99.90
64689;DHT22;62504;46.070;14.492;2023-06-10T04:25:09;16.30;99.90
64689;DHT22;62504;46.070;14.492;2023-06-10T04:27:34;16.20;99.90
64689;DHT22;62504;46.070;14.492;2023-06-10T04:30:00;16.00;99.90
64689;DHT22;62504;46.070;14.492;2023-06-10T04:32:26;16.10;99.90
64689;DHT22;62504;46.070;14.492;2023-06-10T04:34:52;16.10;99.90
64689;DHT22;62504;46.070;14.492;2023-06-10T04:37:17;16.30;99.90
64689;DHT22;62504;46.070;14.492;2023-06-10T04:39:43;16.20;99.90
64689;DHT22;62504;46.070;14.492;2023-06-10T04:42:09;16.10;99.90
64689;DHT22;62504;46.070;14.492;2023-06-10T04:44:34;16.30;99.90
64689;DHT22;62504;46.070;14.492;2023-06-10T04:47:00;16.40;99.90
64689;DHT22;62504;46.070;14.492;2023-06-10T04:49:26;16.50;99.90
64689;DHT22;62504;46.070;14.492;2023-06-10T04:51:51;16.40;99.90
64689;DHT22;62504;46.070;14.492;2023-06-10T04:54:17;16.40;99.90
64689;DHT22;62504;46.070;14.492;2023-06-10T04:56:43;16.40;99.90
64689;DHT22;62504;46.070;14.492;2023-06-10T04:59:08;16.40;99.90
64689;DHT22;62504;46.070;14.492;2023-06-10T05:01:34;16.50;99.90
64689;DHT22;62504;46.070;14.492;2023-06-10T05:03:59;16.60;99.90
64689;DHT22;62504;46.070;14.492;2023-06-10T05:06:25;16.70;99.90
64689;DHT22;62504;46.070;14.492;2023-06-10T05:08:50;16.80;99.90
64689;DHT22;62504;46.070;14.492;2023-06-10T05:11:16;16.80;99.90
64689;DHT22;62504;46.070;14.492;2023-06-10T05:13:42;16.70;99.90
64689;DHT22;62504;46.070;14.492;2023-06-10T05:16:09;16.50;99.90
64689;DHT22;62504;46.070;14.492;2023-06-10T05:18:35;16.40;99.90
64689;DHT22;62504;46.070;14.492;2023-06-10T05:21:01;16.30;99.90
64689;DHT22;62504;46.070;14.492;2023-06-10T05:23:27;16.40;99.90
64689;DHT22;62504;46.070;14.492;2023-06-10T05:25:53;16.40;99.90
64689;DHT22;62504;46.070;14.492;2023-06-10T05:28:19;16.40;99.90
64689;DHT22;62504;46.070;14.492;2023-06-10T05:30:45;16.80;99.90
64689;DHT22;62504;46.070;14.492;2023-06-10T05:33:10;17.10;99.90
64689;DHT22;62504;46.070;14.492;2023-06-10T05:35:36;17.20;99.90
64689;DHT22;62504;46.070;14.492;2023-06-10T05:38:02;17.20;99.90
64689;DHT22;62504;46.070;14.492;2023-06-10T05:40:28;17.30;99.90
64689;DHT22;62504;46.070;14.492;2023-06-10T05:42:53;17.50;99.90
64689;DHT22;62504;46.070;14.492;2023-06-10T05:45:19;17.60;99.90
64689;DHT22;62504;46.070;14.492;2023-06-10T05:47:44;17.70;99.90
64689;DHT22;62504;46.070;14.492;2023-06-10T05:50:10;17.60;99.90
64689;DHT22;62504;46.070;14.492;2023-06-10T05:52:36;17.90;99.90
64689;DHT22;62504;46.070;14.492;2023-06-10T05:55:03;18.00;99.90
64689;DHT22;62504;46.070;14.492;2023-06-10T05:57:29;18.10;99.90
64689;DHT22;62504;46.070;14.492;2023-06-10T05:59:54;18.30;99.90
64689;DHT22;62504;46.070;14.492;2023-06-10T06:02:20;18.50;99.90
64689;DHT22;62504;46.070;14.492;2023-06-10T06:04:46;18.70;99.90
64689;DHT22;62504;46.070;14.492;2023-06-10T06:07:11;18.80;99.90
64689;DHT22;62504;46.070;14.492;2023-06-10T06:09:37;18.60;99.90
64689;DHT22;62504;46.070;14.492;2023-06-10T06:12:03;18.60;99.90
64689;DHT22;62504;46.070;14.492;2023-06-10T06:14:30;18.50;99.90
64689;DHT22;62504;46.070;14.492;2023-06-10T06:16:56;18.60;99.90
64689;DHT22;62504;46.070;14.492;2023-06-10T06:19:22;18.60;99.90
64689;DHT22;62504;46.070;14.492;2023-06-10T06:21:47;18.70;99.90
64689;DHT22;62504;46.070;14.492;2023-06-10T06:24:15;18.80;99.90
64689;DHT22;62504;46.070;14.492;2023-06-10T06:26:40;18.90;99.90
64689;DHT22;62504;46.070;14.492;2023-06-10T06:29:06;18.70;99.90
64689;DHT22;62504;46.070;14.492;2023-06-10T06:31:31;18.80;99.90
64689;DHT22;62504;46.070;14.492;2023-06-10T06:33:57;19.00;99.90
64689;DHT22;62504;46.070;14.492;2023-06-10T06:36:23;19.10;99.90
64689;DHT22;62504;46.070;14.492;2023-06-10T06:38:48;19.00;99.90
64689;DHT22;62504;46.070;14.492;2023-06-10T06:41:14;19.10;99.90
64689;DHT22;62504;46.070;14.492;2023-06-10T06:43:39;19.10;99.90
64689;DHT22;62504;46.070;14.492;2023-06-10T06:46:05;18.80;99.90
64689;DHT22;62504;46.070;14.492;2023-06-10T06:48:31;19.00;99.90
64689;DHT22;62504;46.070;14.492;2023-06-10T06:50:56;19.00;99.90
64689;DHT22;62504;46.070;14.492;2023-06-10T06:53:23;19.20;99.90
64689;DHT22;62504;46.070;14.492;2023-06-10T06:55:49;19.10;99.90
64689;DHT22;62504;46.070;14.492;2023-06-10T06:58:14;19.30;99.90
64689;DHT22;62504;46.070;14.492;2023-06-10T07:00:40;19.50;99.90
64689;DHT22;62504;46.070;14.492;2023-06-10T07:03:05;19.50;99.90
64689;DHT22;62504;46.070;14.492;2023-06-10T07:05:31;19.40;99.90
64689;DHT22;62504;46.070;14.492;2023-06-10T07:07:57;19.60;99.90
64689;DHT22;62504;46.070;14.492;2023-06-10T07:10:23;19.60;99.90
64689;DHT22;62504;46.070;14.492;2023-06-10T07:12:50;19.40;99.90
64689;DHT22;62504;46.070;14.492;2023-06-10T07:15:15;19.10;99.90
64689;DHT22;62504;46.070;14.492;2023-06-10T07:17:41;19.50;99.90
64689;DHT22;62504;46.070;14.492;2023-06-10T07:20:07;19.50;99.90
64689;DHT22;62504;46.070;14.492;2023-06-10T07:22:33;19.50;99.90
64689;DHT22;62504;46.070;14.492;2023-06-10T07:24:59;19.50;99.90
64689;DHT22;62504;46.070;14.492;2023-06-10T07:27:24;19.50;99.90
64689;DHT22;62504;46.070;14.492;2023-06-10T07:29:51;19.40;99.90
64689;DHT22;62504;46.070;14.492;2023-06-10T07:32:16;19.40;99.90
64689;DHT22;62504;46.070;14.492;2023-06-10T07:34:42;19.30;99.90
64689;DHT22;62504;46.070;14.492;2023-06-10T07:37:08;19.40;99.90
64689;DHT22;62504;46.070;14.492;2023-06-10T07:39:34;19.40;99.90
64689;DHT22;62504;46.070;14.492;2023-06-10T07:42:00;19.60;99.90
64689;DHT22;62504;46.070;14.492;2023-06-10T07:44:25;19.70;99.90
64689;DHT22;62504;46.070;14.492;2023-06-10T07:46:51;19.50;99.90
64689;DHT22;62504;46.070;14.492;2023-06-10T07:49:17;19.50;99.90
64689;DHT22;62504;46.070;14.492;2023-06-10T07:51:42;19.50;99.90
64689;DHT22;62504;46.070;14.492;2023-06-10T07:54:08;19.50;99.90
64689;DHT22;62504;46.070;14.492;2023-06-10T07:56:33;19.70;99.90
64689;DHT22;62504;46.070;14.492;2023-06-10T07:58:59;19.90;99.90
64689;DHT22;62504;46.070;14.492;2023-06-10T08:01:25;20.30;99.90
64689;DHT22;62504;46.070;14.492;2023-06-10T08:03:51;20.30;99.90
64689;DHT22;62504;46.070;14.492;2023-06-10T08:06:16;20.40;99.90
64689;DHT22;62504;46.070;14.492;2023-06-10T08:08:43;20.50;99.90
64689;DHT22;62504;46.070;14.492;2023-06-10T08:11:11;20.70;99.90
64689;DHT22;62504;46.070;14.492;2023-06-10T08:13:36;21.40;99.90
64689;DHT22;62504;46.070;14.492;2023-06-10T08:16:02;21.60;99.90
64689;DHT22;62504;46.070;14.492;2023-06-10T08:18:28;22.10;99.90
64689;DHT22;62504;46.070;14.492;2023-06-10T08:20:54;22.10;99.90
64689;DHT22;62504;46.070;14.492;2023-06-10T08:23:20;22.30;99.90
64689;DHT22;62504;46.070;14.492;2023-06-10T08:25:46;22.50;99.90
64689;DHT22;62504;46.070;14.492;2023-06-10T08:28:12;22.00;99.90
64689;DHT22;62504;46.070;14.492;2023-06-10T08:30:37;21.60;99.90
64689;DHT22;62504;46.070;14.492;2023-06-10T08:33:03;21.40;99.90
64689;DHT22;62504;46.070;14.492;2023-06-10T08:35:29;21.20;99.90
64689;DHT22;62504;46.070;14.492;2023-06-10T08:37:54;21.20;99.90
64689;DHT22;62504;46.070;14.492;2023-06-10T08:40:20;21.20;99.90
64689;DHT22;62504;46.070;14.492;2023-06-10T08:42:49;21.40;99.90
64689;DHT22;62504;46.070;14.492;2023-06-10T08:45:17;21.50;99.90
64689;DHT22;62504;46.070;14.492;2023-06-10T08:47:45;21.70;99.90
64689;DHT22;62504;46.070;14.492;2023-06-10T08:50:11;21.80;99.90
64689;DHT22;62504;46.070;14.492;2023-06-10T08:52:42;21.90;99.90
64689;DHT22;62504;46.070;14.492;2023-06-10T08:55:12;22.00;99.90
64689;DHT22;62504;46.070;14.492;2023-06-10T08:57:43;22.10;99.90
64689;DHT22;62504;46.070;14.492;2023-06-10T09:00:11;22.10;99.90
64689;DHT22;62504;46.070;14.492;2023-06-10T09:02:38;21.80;99.90
64689;DHT22;62504;46.070;14.492;2023-06-10T09:05:04;21.90;99.90
64689;DHT22;62504;46.070;14.492;2023-06-10T09:07:33;22.20;99.90
64689;DHT22;62504;46.070;14.492;2023-06-10T09:10:02;22.30;99.90
64689;DHT22;62504;46.070;14.492;2023-06-10T09:12:33;22.40;99.90
64689;DHT22;62504;46.070;14.492;2023-06-10T09:15:01;22.40;99.90
64689;DHT22;62504;46.070;14.492;2023-06-10T09:17:27;22.50;99.90
64689;DHT22;62504;46.070;14.492;2023-06-10T09:19:53;22.70;99.90
64689;DHT22;62504;46.070;14.492;2023-06-10T09:22:21;22.70;99.90
64689;DHT22;62504;46.070;14.492;2023-06-10T09:24:47;22.70;99.90
64689;DHT22;62504;46.070;14.492;2023-06-10T09:27:13;22.60;99.90
64689;DHT22;62504;46.070;14.492;2023-06-10T09:29:55;22.90;99.90
64689;DHT22;62504;46.070;14.492;2023-06-10T09:32:21;23.00;99.90
64689;DHT22;62504;46.070;14.492;2023-06-10T09:34:48;22.90;99.90
64689;DHT22;62504;46.070;14.492;2023-06-10T09:37:20;22.90;99.90
64689;DHT22;62504;46.070;14.492;2023-06-10T09:40:03;22.90;99.90
64689;DHT22;62504;46.070;14.492;2023-06-10T09:42:33;23.00;99.90
64689;DHT22;62504;46.070;14.492;2023-06-10T09:45:01;22.90;99.90
64689;DHT22;62504;46.070;14.492;2023-06-10T09:47:27;23.10;99.90
64689;DHT22;62504;46.070;14.492;2023-06-10T09:49:53;23.00;99.90
64689;DHT22;62504;46.070;14.492;2023-06-10T09:52:27;23.00;99.90
64689;DHT22;62504;46.070;14.492;2023-06-10T09:54:54;23.10;99.90
64689;DHT22;62504;46.070;14.492;2023-06-10T09:57:23;23.30;99.90
64689;DHT22;62504;46.070;14.492;2023-06-10T09:59:53;23.40;99.90
64689;DHT22;62504;46.070;14.492;2023-06-10T10:02:19;23.20;99.90
64689;DHT22;62504;46.070;14.492;2023-06-10T10:04:45;23.10;99.90
64689;DHT22;62504;46.070;14.492;2023-06-10T10:07:11;23.10;99.90
64689;DHT22;62504;46.070;14.492;2023-06-10T10:09:38;23.20;99.90
64689;DHT22;62504;46.070;14.492;2023-06-10T10:12:15;23.10;99.90
64689;DHT22;62504;46.070;14.492;2023-06-10T10:14:46;23.20;99.90
64689;DHT22;62504;46.070;14.492;2023-06-10T10:17:14;23.30;99.90
64689;DHT22;62504;46.070;14.492;2023-06-10T10:19:46;23.30;99.90
64689;DHT22;62504;46.070;14.492;2023-06-10T10:22:19;23.20;99.90
64689;DHT22;62504;46.070;14.492;2023-06-10T10:24:55;23.20;99.90
64689;DHT22;62504;46.070;14.492;2023-06-10T10:27:28;23.00;99.90
64689;DHT22;62504;46.070;14.492;2023-06-10T10:29:58;23.00;99.90
64689;DHT22;62504;46.070;14.492;2023-06-10T10:32:38;22.90;99.90
64689;DHT22;62504;46.070;14.492;2023-06-10T10:35:09;22.90;99.90
64689;DHT22;62504;46.070;14.492;2023-06-10T10:37:36;22.90;99.90
64689;DHT22;62504;46.070;14.492;2023-06-10T10:40:02;22.90;99.90
64689;DHT22;62504;46.070;14.492;2023-06-10T10:42:30;22.90;99.90
64689;DHT22;62504;46.070;14.492;2023-06-10T10:44:56;23.00;99.90
64689;DHT22;62504;46.070;14.492;2023-06-10T10:47:22;23.10;99.90
64689;DHT22;62504;46.070;14.492;2023-06-10T10:49:52;23.10;99.90
64689;DHT22;62504;46.070;14.492;2023-06-10T10:52:24;23.00;99.90
64689;DHT22;62504;46.070;14.492;2023-06-10T10:54:53;23.10;99.90
64689;DHT22;62504;46.070;14.492;2023-06-10T10:57:22;23.10;99.90
64689;DHT22;62504;46.070;14.492;2023-06-10T10:59:59;23.10;99.90
64689;DHT22;62504;46.070;14.492;2023-06-10T11:02:35;23.10;99.90
64689;DHT22;62504;46.070;14.492;2023-06-10T11:05:01;23.10;99.90
64689;DHT22;62504;46.070;14.492;2023-06-10T11:07:30;23.10;99.90
64689;DHT22;62504;46.070;14.492;2023-06-10T11:10:10;23.10;99.90
64689;DHT22;62504;46.070;14.492;2023-06-10T11:15:27;23.20;99.90
64689;DHT22;62504;46.070;14.492;2023-06-10T11:21:00;23.00;99.90
64689;DHT22;62504;46.070;14.492;2023-06-10T11:23:31;23.00;99.90
64689;DHT22;62504;46.070;14.492;2023-06-10T11:31:24;23.20;99.90
64689;DHT22;62504;46.070;14.492;2023-06-10T11:33:58;23.20;99.90
64689;DHT22;62504;46.070;14.492;2023-06-10T11:36:26;23.10;99.90
64689;DHT22;62504;46.070;14.492;2023-06-10T11:41:24;23.10;99.90
64689;DHT22;62504;46.070;14.492;2023-06-10T11:43:53;23.10;99.90
64689;DHT22;62504;46.070;14.492;2023-06-10T11:46:21;23.10;99.90
64689;DHT22;62504;46.070;14.492;2023-06-10T11:48:52;23.10;99.90
64689;DHT22;62504;46.070;14.492;2023-06-10T11:51:18;23.00;99.90
64689;DHT22;62504;46.070;14.492;2023-06-10T11:53:45;22.90;99.90
64689;DHT22;62504;46.070;14.492;2023-06-10T11:56:11;22.90;99.90
64689;DHT22;62504;46.070;14.492;2023-06-10T11:58:36;22.90;99.90
64689;DHT22;62504;46.070;14.492;2023-06-10T12:01:02;22.90;99.90
64689;DHT22;62504;46.070;14.492;2023-06-10T12:03:36;22.90;99.90
64689;DHT22;62504;46.070;14.492;2023-06-10T12:06:04;22.90;99.90
64689;DHT22;62504;46.070;14.492;2023-06-10T12:08:30;22.80;99.90
64689;DHT22;62504;46.070;14.492;2023-06-10T12:10:57;22.80;99.90
64689;DHT22;62504;46.070;14.492;2023-06-10T12:13:25;22.80;99.90
64689;DHT22;62504;46.070;14.492;2023-06-10T12:15:51;22.80;99.90
64689;DHT22;62504;46.070;14.492;2023-06-10T12:18:22;22.80;99.90
64689;DHT22;62504;46.070;14.492;2023-06-10T12:20:48;22.90;99.90
64689;DHT22;62504;46.070;14.492;2023-06-10T12:23:15;22.80;99.90
64689;DHT22;62504;46.070;14.492;2023-06-10T12:25:54;22.80;99.90
64689;DHT22;62504;46.070;14.492;2023-06-10T12:28:26;22.70;99.90
64689;DHT22;62504;46.070;14.492;2023-06-10T12:31:08;22.70;99.90
64689;DHT22;62504;46.070;14.492;2023-06-10T12:33:34;22.70;99.90
64689;DHT22;62504;46.070;14.492;2023-06-10T12:35:59;22.70;99.90
64689;DHT22;62504;46.070;14.492;2023-06-10T12:38:26;22.50;99.90
64689;DHT22;62504;46.070;14.492;2023-06-10T12:41:01;22.40;99.90
64689;DHT22;62504;46.070;14.492;2023-06-10T12:43:27;22.30;99.90
64689;DHT22;62504;46.070;14.492;2023-06-10T12:45:53;22.30;99.90
64689;DHT22;62504;46.070;14.492;2023-06-10T12:48:23;22.20;99.90
64689;DHT22;62504;46.070;14.492;2023-06-10T12:50:57;22.20;99.90
64689;DHT22;62504;46.070;14.492;2023-06-10T12:53:23;22.20;99.90
64689;DHT22;62504;46.070;14.492;2023-06-10T12:55:50;22.10;99.90
64689;DHT22;62504;46.070;14.492;2023-06-10T12:58:16;22.10;99.90
64689;DHT22;62504;46.070;14.492;2023-06-10T13:00:42;22.10;99.90
64689;DHT22;62504;46.070;14.492;2023-06-10T13:03:09;22.10;99.90
64689;DHT22;62504;46.070;14.492;2023-06-10T13:05:38;22.10;99.90
64689;DHT22;62504;46.070;14.492;2023-06-10T13:08:05;22.10;99.90
64689;DHT22;62504;46.070;14.492;2023-06-10T13:10:31;22.10;99.90
64689;DHT22;62504;46.070;14.492;2023-06-10T13:12:56;22.10;99.90
64689;DHT22;62504;46.070;14.492;2023-06-10T13:15:22;22.10;99.90
64689;DHT22;62504;46.070;14.492;2023-06-10T13:17:48;22.10;99.90
64689;DHT22;62504;46.070;14.492;2023-06-10T13:20:15;22.10;99.90
64689;DHT22;62504;46.070;14.492;2023-06-10T13:22:41;22.10;99.90
64689;DHT22;62504;46.070;14.492;2023-06-10T13:25:07;22.10;99.90
64689;DHT22;62504;46.070;14.492;2023-06-10T13:27:34;22.10;99.90
64689;DHT22;62504;46.070;14.492;2023-06-10T13:30:00;22.10;99.90
64689;DHT22;62504;46.070;14.492;2023-06-10T13:32:26;22.20;99.90
64689;DHT22;62504;46.070;14.492;2023-06-10T13:34:51;22.30;99.90
64689;DHT22;62504;46.070;14.492;2023-06-10T13:37:18;22.30;99.90
64689;DHT22;62504;46.070;14.492;2023-06-10T13:39:45;22.40;99.90
64689;DHT22;62504;46.070;14.492;2023-06-10T13:42:13;22.40;99.90
64689;DHT22;62504;46.070;14.492;2023-06-10T13:44:39;22.40;99.90
64689;DHT22;62504;46.070;14.492;2023-06-10T13:47:05;22.50;99.90
64689;DHT22;62504;46.070;14.492;2023-06-10T13:49:32;22.40;99.90
64689;DHT22;62504;46.070;14.492;2023-06-10T13:51:57;22.40;99.90
64689;DHT22;62504;46.070;14.492;2023-06-10T13:54:23;22.40;99.90
64689;DHT22;62504;46.070;14.492;2023-06-10T13:56:49;22.30;99.90
64689;DHT22;62504;46.070;14.492;2023-06-10T13:59:14;22.30;99.90
64689;DHT22;62504;46.070;14.492;2023-06-10T14:01:40;22.20;99.90
64689;DHT22;62504;46.070;14.492;2023-06-10T14:04:06;22.20;99.90
64689;DHT22;62504;46.070;14.492;2023-06-10T14:06:33;22.10;99.90
64689;DHT22;62504;46.070;14.492;2023-06-10T14:08:59;22.10;99.90
64689;DHT22;62504;46.070;14.492;2023-06-10T14:11:25;22.10;99.90
64689;DHT22;62504;46.070;14.492;2023-06-10T14:13:50;22.10;99.90
64689;DHT22;62504;46.070;14.492;2023-06-10T14:16:16;22.00;99.90
64689;DHT22;62504;46.070;14.492;2023-06-10T14:18:42;22.00;99.90
64689;DHT22;62504;46.070;14.492;2023-06-10T14:21:07;22.00;99.90
64689;DHT22;62504;46.070;14.492;2023-06-10T14:23:33;22.00;99.90
64689;DHT22;62504;46.070;14.492;2023-06-10T14:25:59;22.10;99.90
64689;DHT22;62504;46.070;14.492;2023-06-10T14:28:24;22.10;99.90
64689;DHT22;62504;46.070;14.492;2023-06-10T14:30:51;22.10;99.90
64689;DHT22;62504;46.070;14.492;2023-06-10T14:33:18;22.10;99.90
64689;DHT22;62504;46.070;14.492;2023-06-10T14:35:43;22.10;99.90
64689;DHT22;62504;46.070;14.492;2023-06-10T14:38:09;22.10;99.90
64689;DHT22;62504;46.070;14.492;2023-06-10T14:40:35;22.20;99.90
64689;DHT22;62504;46.070;14.492;2023-06-10T14:43:01;22.20;99.90
64689;DHT22;62504;46.070;14.492;2023-06-10T14:45:29;22.10;99.90
64689;DHT22;62504;46.070;14.492;2023-06-10T14:47:55;22.10;99.90
64689;DHT22;62504;46.070;14.492;2023-06-10T14:50:20;22.10;99.90
64689;DHT22;62504;46.070;14.492;2023-06-10T14:52:46;22.10;99.90
64689;DHT22;62504;46.070;14.492;2023-06-10T14:55:12;22.10;99.90
64689;DHT22;62504;46.070;14.492;2023-06-10T14:57:38;22.20;99.90
64689;DHT22;62504;46.070;14.492;2023-06-10T15:00:04;22.10;99.90
64689;DHT22;62504;46.070;14.492;2023-06-10T15:02:30;22.20;99.90
64689;DHT22;62504;46.070;14.492;2023-06-10T15:04:55;22.20;99.90
64689;DHT22;62504;46.070;14.492;2023-06-10T15:07:21;22.20;99.90
64689;DHT22;62504;46.070;14.492;2023-06-10T15:09:46;22.20;99.90
64689;DHT22;62504;46.070;14.492;2023-06-10T15:12:12;22.20;99.90
64689;DHT22;62504;46.070;14.492;2023-06-10T15:14:38;22.30;99.90
64689;DHT22;62504;46.070;14.492;2023-06-10T15:17:03;22.30;99.90
64689;DHT22;62504;46.070;14.492;2023-06-10T15:19:29;22.20;99.90
64689;DHT22;62504;46.070;14.492;2023-06-10T15:21:55;22.20;99.90
64689;DHT22;62504;46.070;14.492;2023-06-10T15:24:20;22.20;99.90
64689;DHT22;62504;46.070;14.492;2023-06-10T15:26:46;22.20;99.90